Fellowship, Louisiana
Current Conditions -  °F | °C
As of 11:53 AM on Thursday 23 Oct 2014 (Local Time) from KESF Reporting Station
Clear Clear  
Wind Chill: 63°   Ceiling: Unl
Heat Index: 63°   Visibility: 10mi
Dew Point: 50°   Wind: 3mph
Humidity: 63%   Direction: NA
Pressure: 30.16"   Gusts: NA
Location:  31.6376°N, 92.2485°W
Report Text: KESF 231653Z AUTO VRB03KT 10SM CLR 17/10 A3016 RMK AO2 SLP210 T01720100
Loading
Personal Weather Stations






























Interactive Weather Map
Tropical Storm Tracking
New forecast layout! Learn more

10-Day Weather Forecast

Advertisements
Track Severe Weather on mobile